Parks, Arkansas
Current Conditions -  °F | °C
As of 4:35 PM on Sunday 21 Dec 2014 (Local Time) from KMEZ Reporting Station
Overcast Overcast  
Wind Chill: 52°   Ceiling: 2300
Heat Index: 52°   Visibility: 10mi
Dew Point: 43°   Wind: 3mph
Humidity: 71%   Direction: 130°SE
Pressure: 29.9"   Gusts: NA
Location:  34.8°N, 93.96°W
Report Text: KMEZ 212235Z AUTO 13003KT 10SM OVC023 11/06 A2990 RMK AO2
Loading
Personal Weather Stations






























Interactive Weather Map New forecast layout! Learn more

10-Day Weather Forecast

Advertisements
Track Severe Weather on mobile